Time;durP1;ratioP1;P1;durP2;ratioP2;P2;SDS_P1;SDS_P2;PMS_P1;PMS_P2;Temp;Humidity;BMP_temperature;BMP_pressure;BME280_temperature;BME280_humidity;BME280_pressure;Samples;Min_cycle;Max_cycle;Signal;HPM_P1;HPM_P2
2021/04/28 00:01:05;;;;;;;12.32;8.32;;;15.00;99.90;;;;;;5054140;28;20048;-75
2021/04/28 00:03:31;;;;;;;10.95;7.32;;;15.00;99.90;;;;;;5053618;28;20468;-75
2021/04/28 00:05:57;;;;;;;14.05;7.97;;;15.20;99.90;;;;;;5054632;28;20542;-75
2021/04/28 00:08:23;;;;;;;10.02;7.78;;;15.20;99.90;;;;;;5053582;28;20052;-74
2021/04/28 00:10:49;;;;;;;12.57;7.88;;;15.10;99.90;;;;;;5054060;28;20636;-75
2021/04/28 00:13:17;;;;;;;15.23;8.52;;;15.10;99.90;;;;;;5053412;28;20021;-75
2021/04/28 00:15:48;;;;;;;11.98;8.55;;;15.00;99.90;;;;;;5054042;28;20484;-74
2021/04/28 00:18:16;;;;;;;12.15;8.45;;;14.90;99.90;;;;;;5053434;28;20087;-75
2021/04/28 00:20:43;;;;;;;13.43;9.15;;;14.70;99.90;;;;;;5054195;28;20075;-74
2021/04/28 00:23:09;;;;;;;13.55;9.35;;;14.90;99.90;;;;;;5053354;28;20368;-76
2021/04/28 00:25:37;;;;;;;17.52;9.00;;;14.70;99.90;;;;;;5053952;28;20022;-75
2021/04/28 00:28:04;;;;;;;14.93;9.38;;;14.50;99.90;;;;;;5053230;28;20021;-74
2021/04/28 00:30:30;;;;;;;12.65;8.85;;;14.50;99.90;;;;;;5053856;28;20083;-77
2021/04/28 00:32:55;;;;;;;17.83;9.40;;;14.70;99.90;;;;;;5035112;28;20029;-75
2021/04/28 00:35:22;;;;;;;13.23;9.68;;;14.40;99.90;;;;;;5036048;28;20025;-76
2021/04/28 00:37:49;;;;;;;18.02;11.05;;;14.50;99.90;;;;;;5052023;28;20047;-75
2021/04/28 00:40:19;;;;;;;17.83;12.88;;;14.70;99.90;;;;;;5053276;28;20560;-74
2021/04/28 00:42:46;;;;;;;19.40;12.93;;;14.50;99.90;;;;;;5053826;28;20087;-75
2021/04/28 00:45:14;;;;;;;18.83;13.30;;;14.30;99.90;;;;;;5052859;28;20021;-76
2021/04/28 00:47:40;;;;;;;19.80;13.68;;;14.30;99.90;;;;;;5053218;28;20029;-74
2021/04/28 00:50:07;;;;;;;20.50;13.30;;;14.40;99.90;;;;;;5052948;28;20095;-76
2021/04/28 00:52:33;;;;;;;17.23;12.80;;;14.20;99.90;;;;;;5053628;28;20415;-75
2021/04/28 00:55:01;;;;;;;19.85;13.40;;;14.20;99.90;;;;;;5052440;28;20063;-74
2021/04/28 00:57:27;;;;;;;22.20;13.98;;;14.10;99.90;;;;;;5053503;28;20029;-74
2021/04/28 00:59:53;;;;;;;22.38;13.90;;;14.20;99.90;;;;;;5034920;28;20083;-76
2021/04/28 01:02:19;;;;;;;20.90;13.38;;;14.30;99.90;;;;;;5033280;28;20030;-75
2021/04/28 01:04:45;;;;;;;22.45;15.90;;;14.20;99.90;;;;;;5015034;28;20025;-75
2021/04/28 01:07:12;;;;;;;22.42;14.75;;;14.30;99.90;;;;;;5033313;28;20029;-76
2021/04/28 01:09:39;;;;;;;22.35;14.57;;;14.20;99.90;;;;;;5032282;28;20030;-74
2021/04/28 01:12:07;;;;;;;22.90;14.75;;;14.00;99.90;;;;;;5033155;28;20026;-74
2021/04/28 01:14:33;;;;;;;28.00;18.55;;;14.00;99.90;;;;;;5032274;28;20034;-74
2021/04/28 01:17:01;;;;;;;31.58;19.60;;;14.00;99.90;;;;;;5033089;28;20036;-74
2021/04/28 01:19:28;;;;;;;26.73;18.20;;;14.10;99.90;;;;;;5032315;28;20037;-74
2021/04/28 01:21:54;;;;;;;24.80;18.00;;;14.00;99.90;;;;;;5033123;28;20069;-75
2021/04/28 01:24:21;;;;;;;22.40;15.30;;;14.00;99.90;;;;;;5032080;28;20025;-75
2021/04/28 01:26:51;;;;;;;26.60;15.73;;;13.90;99.90;;;;;;5033042;28;20021;-77
2021/04/28 01:29:22;;;;;;;23.33;15.30;;;14.00;99.90;;;;;;5032004;28;20035;-77
2021/04/28 01:31:49;;;;;;;20.65;12.85;;;14.00;99.90;;;;;;5032896;28;20057;-75
2021/04/28 01:34:15;;;;;;;16.38;10.43;;;13.50;99.90;;;;;;5032028;28;20033;-74
2021/04/28 01:36:42;;;;;;;12.93;10.10;;;13.20;99.90;;;;;;5032540;28;20030;-74
2021/04/28 01:39:10;;;;;;;13.15;9.50;;;13.00;99.90;;;;;;5048015;28;20080;-75
2021/04/28 01:41:44;;;;;;;14.20;9.10;;;13.30;99.90;;;;;;5052620;28;20021;-76
2021/04/28 01:44:13;;;;;;;13.25;9.48;;;12.90;99.90;;;;;;5033980;28;20021;-75
2021/04/28 01:46:39;;;;;;;14.38;9.32;;;13.30;99.90;;;;;;5052612;28;20028;-75
2021/04/28 01:49:06;;;;;;;15.40;9.20;;;13.30;99.90;;;;;;5051388;28;20518;-74
2021/04/28 01:51:33;;;;;;;11.57;8.57;;;13.50;99.90;;;;;;5052616;28;20056;-76
2021/04/28 01:54:05;;;;;;;13.23;8.85;;;13.60;99.90;;;;;;5052263;28;20049;-75
2021/04/28 01:56:32;;;;;;;16.10;10.05;;;13.60;99.90;;;;;;5051907;28;20094;-74
2021/04/28 01:58:58;;;;;;;12.32;8.63;;;13.50;99.90;;;;;;5052156;28;20028;-76
2021/04/28 02:01:25;;;;;;;13.30;8.10;;;13.20;99.90;;;;;;5051757;28;20025;-76
2021/04/28 02:03:53;;;;;;;12.35;8.57;;;13.40;99.90;;;;;;5052312;28;20025;-75
2021/04/28 02:06:20;;;;;;;15.40;10.02;;;13.70;99.90;;;;;;5051507;28;20048;-76
2021/04/28 02:08:46;;;;;;;13.68;8.60;;;13.70;99.90;;;;;;5051898;28;20091;-76
2021/04/28 02:11:12;;;;;;;10.50;7.35;;;13.80;99.90;;;;;;5051319;28;20021;-75
2021/04/28 02:13:42;;;;;;;12.23;8.43;;;13.80;99.90;;;;;;5052039;28;20423;-75
2021/04/28 02:16:09;;;;;;;11.95;8.60;;;13.80;99.90;;;;;;5051277;28;20098;-75
2021/04/28 02:18:35;;;;;;;12.70;8.23;;;13.80;99.90;;;;;;5051985;28;20025;-78
2021/04/28 02:21:04;;;;;;;14.50;8.52;;;13.50;99.90;;;;;;5051437;28;20025;-75
2021/04/28 02:23:31;;;;;;;13.32;7.82;;;13.00;99.90;;;;;;5052184;28;20037;-77
2021/04/28 02:25:58;;;;;;;14.32;8.63;;;12.90;99.90;;;;;;5051178;28;20025;-77
2021/04/28 02:28:24;;;;;;;12.13;8.52;;;12.70;99.90;;;;;;5052052;28;20053;-75
2021/04/28 02:30:49;;;;;;;12.07;8.45;;;12.50;99.90;;;;;;5050814;28;20103;-76
2021/04/28 02:33:16;;;;;;;14.75;8.70;;;12.80;99.90;;;;;;5051468;28;20369;-75
2021/04/28 02:35:42;;;;;;;12.05;8.52;;;13.10;99.90;;;;;;5051129;28;20147;-75
2021/04/28 02:38:20;;;;;;;13.30;7.85;;;13.10;99.90;;;;;;5051383;28;20386;-75
2021/04/28 02:40:46;;;;;;;14.10;9.18;;;13.10;99.90;;;;;;5051006;28;20052;-76
2021/04/28 02:43:14;;;;;;;11.10;8.02;;;13.30;99.90;;;;;;5051423;28;20048;-75
2021/04/28 02:45:43;;;;;;;11.25;8.15;;;13.40;99.90;;;;;;5050935;28;20029;-75
2021/04/28 02:48:10;;;;;;;14.85;9.30;;;13.40;99.90;;;;;;5051431;28;20040;-75
2021/04/28 02:50:36;;;;;;;10.35;7.25;;;13.40;99.90;;;;;;5050867;28;20422;-75
2021/04/28 02:53:07;;;;;;;12.93;8.23;;;13.20;99.90;;;;;;5051487;28;20086;-77
2021/04/28 02:55:33;;;;;;;15.02;8.38;;;13.30;99.90;;;;;;5050646;28;20392;-74
2021/04/28 02:58:00;;;;;;;13.27;8.88;;;13.10;99.90;;;;;;5051235;28;20029;-75
2021/04/28 03:00:26;;;;;;;17.92;10.32;;;13.30;99.90;;;;;;5049857;28;20373;-75
2021/04/28 03:02:55;;;;;;;16.58;9.98;;;13.40;99.90;;;;;;5051342;28;20024;-75
2021/04/28 03:05:22;;;;;;;18.73;10.93;;;13.30;99.90;;;;;;5050416;28;20025;-75
2021/04/28 03:07:48;;;;;;;21.63;12.65;;;13.30;99.90;;;;;;5051527;28;20057;-76
2021/04/28 03:10:16;;;;;;;21.02;10.98;;;13.30;99.90;;;;;;5050548;28;20059;-76
2021/04/28 03:12:44;;;;;;;16.83;10.05;;;13.40;99.90;;;;;;5050764;28;20025;-76
2021/04/28 03:15:12;;;;;;;17.15;10.82;;;13.40;99.90;;;;;;5050531;28;20029;-75
2021/04/28 03:17:38;;;;;;;15.68;9.60;;;13.30;99.90;;;;;;5051327;28;20029;-74
2021/04/28 03:20:07;;;;;;;12.68;8.52;;;13.00;99.90;;;;;;5050543;28;20032;-74
2021/04/28 03:22:34;;;;;;;14.70;8.77;;;12.80;99.90;;;;;;5051328;28;20033;-74
2021/04/28 03:25:00;;;;;;;15.98;9.77;;;12.20;99.90;;;;;;5051151;28;20023;-75
2021/04/28 03:27:26;;;;;;;13.65;9.55;;;12.60;99.90;;;;;;5050374;28;20028;-75
2021/04/28 03:29:52;;;;;;;19.15;11.25;;;12.90;99.90;;;;;;5051263;28;20100;-76
2021/04/28 03:32:18;;;;;;;21.10;11.18;;;13.00;99.90;;;;;;5050162;28;20047;-75
2021/04/28 03:34:44;;;;;;;16.75;10.18;;;13.10;99.90;;;;;;5051043;28;20036;-75
2021/04/28 03:37:10;;;;;;;18.20;10.73;;;13.10;99.90;;;;;;5050179;28;20040;-77
2021/04/28 03:39:36;;;;;;;14.93;9.77;;;13.20;99.90;;;;;;5050937;28;20029;-75
2021/04/28 03:42:02;;;;;;;17.42;11.05;;;13.00;99.90;;;;;;5050476;28;20045;-75
2021/04/28 03:44:28;;;;;;;16.05;10.38;;;13.00;99.90;;;;;;5050923;28;20096;-75
2021/04/28 03:46:54;;;;;;;18.52;12.05;;;13.10;99.90;;;;;;5050363;28;20472;-77
2021/04/28 03:49:21;;;;;;;18.83;11.73;;;13.10;99.90;;;;;;5050670;28;20032;-77
2021/04/28 03:51:48;;;;;;;17.75;10.15;;;13.10;99.90;;;;;;5050058;28;20104;-76
2021/04/28 03:54:15;;;;;;;19.42;9.63;;;13.10;99.90;;;;;;5051187;28;20048;-77
2021/04/28 03:56:41;;;;;;;20.08;10.70;;;13.20;99.90;;;;;;5050668;28;20356;-74
2021/04/28 03:59:09;;;;;;;20.40;11.75;;;13.20;99.90;;;;;;5050510;28;20099;-74
2021/04/28 04:01:35;;;;;;;23.75;12.50;;;13.30;99.90;;;;;;5050174;28;20079;-76
2021/04/28 04:04:01;;;;;;;19.73;13.02;;;13.20;99.90;;;;;;5050681;28;20024;-75
2021/04/28 04:06:27;;;;;;;21.13;11.82;;;13.20;99.90;;;;;;5049798;28;20037;-77
2021/04/28 04:08:52;;;;;;;23.27;11.65;;;13.10;99.90;;;;;;5050791;28;20033;-76
2021/04/28 04:11:18;;;;;;;20.42;11.50;;;13.10;99.90;;;;;;5050618;28;20028;-75
2021/04/28 04:13:44;;;;;;;21.17;12.18;;;12.90;99.90;;;;;;5054014;28;20025;-76
2021/04/28 04:16:10;;;;;;;17.35;10.77;;;13.00;99.90;;;;;;5053609;28;20025;-75
2021/04/28 04:18:35;;;;;;;19.80;11.55;;;12.70;99.90;;;;;;5054183;28;20066;-74
2021/04/28 04:21:01;;;;;;;21.65;12.23;;;12.90;99.90;;;;;;5053323;28;20380;-72
2021/04/28 04:23:27;;;;;;;27.25;14.82;;;12.80;99.90;;;;;;5054360;28;20037;-74
2021/04/28 04:25:53;;;;;;;26.10;14.50;;;12.80;99.90;;;;;;5053443;28;20095;-76
2021/04/28 04:28:18;;;;;;;23.52;14.38;;;13.10;99.90;;;;;;5053787;28;20036;-77
2021/04/28 04:30:47;;;;;;;21.42;12.77;;;13.20;99.90;;;;;;5053666;28;20031;-76
2021/04/28 04:33:16;;;;;;;16.80;11.18;;;12.90;99.90;;;;;;5053776;28;20468;-76
2021/04/28 04:35:42;;;;;;;21.15;13.30;;;13.20;99.90;;;;;;5053689;28;20036;-76
2021/04/28 04:38:08;;;;;;;16.23;10.23;;;13.20;99.90;;;;;;5052706;28;20053;-76
2021/04/28 04:40:33;;;;;;;19.08;11.15;;;12.80;99.90;;;;;;5053658;28;20028;-77
2021/04/28 04:42:59;;;;;;;22.65;10.63;;;12.90;99.90;;;;;;5053017;28;20021;-77
2021/04/28 04:45:25;;;;;;;15.48;10.13;;;13.20;99.90;;;;;;5053498;28;20029;-75
2021/04/28 04:47:51;;;;;;;15.05;9.95;;;13.40;99.90;;;;;;5052599;28;20423;-76
2021/04/28 04:50:17;;;;;;;17.38;10.10;;;13.50;99.90;;;;;;5052878;28;20041;-77
2021/04/28 04:52:43;;;;;;;17.15;9.73;;;13.60;99.90;;;;;;5052763;28;20032;-76
2021/04/28 04:55:10;;;;;;;15.25;8.52;;;13.50;99.90;;;;;;5053351;28;20036;-75
2021/04/28 04:57:36;;;;;;;12.73;7.75;;;13.60;99.90;;;;;;5035341;28;20021;-76
2021/04/28 05:00:06;;;;;;;15.13;8.60;;;13.50;99.90;;;;;;5052874;28;20103;-76
2021/04/28 05:02:32;;;;;;;13.45;7.57;;;13.70;99.90;;;;;;5052755;28;20028;-77
2021/04/28 05:04:58;;;;;;;13.57;8.68;;;13.30;99.90;;;;;;5052983;28;20104;-76
2021/04/28 05:07:24;;;;;;;11.73;8.30;;;13.60;99.90;;;;;;5052425;28;20032;-75
2021/04/28 05:09:51;;;;;;;13.07;9.02;;;13.50;99.90;;;;;;5053263;28;20028;-76
2021/04/28 05:12:16;;;;;;;11.82;8.15;;;13.60;99.90;;;;;;5052424;28;20170;-76
2021/04/28 05:14:42;;;;;;;15.40;7.63;;;13.90;99.90;;;;;;5052814;28;20033;-77
2021/04/28 05:17:08;;;;;;;13.65;9.20;;;13.20;99.90;;;;;;5052355;28;20536;-76
2021/04/28 05:19:34;;;;;;;24.30;13.63;;;13.00;99.90;;;;;;5034994;28;20024;-76
2021/04/28 05:21:59;;;;;;;18.95;13.23;;;12.70;99.90;;;;;;5051893;28;20403;-76
2021/04/28 05:24:25;;;;;;;59.47;34.90;;;13.30;99.90;;;;;;5051632;28;20538;-73
2021/04/28 05:26:51;;;;;;;15.35;11.57;;;13.90;99.90;;;;;;5051878;28;20033;-75
2021/04/28 05:29:17;;;;;;;23.33;14.75;;;13.80;99.90;;;;;;5052480;28;20086;-75
2021/04/28 05:31:42;;;;;;;19.73;10.23;;;13.80;99.90;;;;;;5051685;28;20025;-75
2021/04/28 05:34:08;;;;;;;19.30;11.77;;;13.70;99.90;;;;;;5052416;28;20032;-75
2021/04/28 05:36:34;;;;;;;20.60;11.63;;;13.90;99.90;;;;;;5052524;28;20025;-74
2021/04/28 05:39:00;;;;;;;14.40;9.32;;;14.30;99.90;;;;;;5051514;28;20072;-75
2021/04/28 05:41:29;;;;;;;14.75;8.52;;;14.60;99.90;;;;;;5052443;28;20120;-75
2021/04/28 05:43:56;;;;;;;11.93;7.80;;;14.80;99.90;;;;;;5051398;28;20017;-74
2021/04/28 05:46:23;;;;;;;12.60;8.60;;;14.90;99.90;;;;;;5052241;28;20029;-76
2021/04/28 05:48:49;;;;;;;20.63;8.77;;;14.90;99.90;;;;;;5033584;28;20079;-74
2021/04/28 05:51:15;;;;;;;21.35;9.32;;;14.60;99.90;;;;;;5052087;28;20029;-75
2021/04/28 05:53:41;;;;;;;17.77;9.15;;;14.80;99.90;;;;;;5050451;28;20360;-74
2021/04/28 05:56:07;;;;;;;14.77;8.05;;;14.90;99.90;;;;;;5043840;28;20534;-74
2021/04/28 05:58:33;;;;;;;11.70;8.02;;;15.00;99.90;;;;;;5051445;28;20077;-74
2021/04/28 06:01:00;;;;;;;22.92;10.65;;;15.20;99.90;;;;;;5028040;28;20477;-74
2021/04/28 06:03:26;;;;;;;14.57;8.02;;;15.20;99.90;;;;;;5049524;28;20159;-74
2021/04/28 06:05:52;;;;;;;16.58;8.13;;;15.30;99.90;;;;;;5051764;28;20025;-74
2021/04/28 06:08:18;;;;;;;18.33;8.93;;;15.40;99.90;;;;;;5051452;28;20090;-74
2021/04/28 06:10:44;;;;;;;58.75;37.38;;;15.50;99.90;;;;;;5051077;28;20111;-75
2021/04/28 06:13:10;;;;;;;37.33;23.13;;;15.60;99.90;;;;;;5051309;28;20128;-75
2021/04/28 06:15:37;;;;;;;21.98;12.50;;;15.90;99.90;;;;;;5050837;28;20423;-76
2021/04/28 06:18:05;;;;;;;18.13;10.65;;;15.70;99.90;;;;;;5050411;28;20039;-76
2021/04/28 06:20:32;;;;;;;27.15;10.55;;;15.40;99.90;;;;;;5048162;28;20442;-77
2021/04/28 06:22:58;;;;;;;19.20;11.43;;;15.30;99.90;;;;;;5048457;28;20086;-76
2021/04/28 06:25:27;;;;;;;21.23;10.13;;;15.30;99.90;;;;;;5049088;28;20095;-76
2021/04/28 06:27:53;;;;;;;17.08;10.55;;;15.50;99.90;;;;;;5049093;28;20031;-74
2021/04/28 06:30:19;;;;;;;21.73;11.80;;;15.70;99.90;;;;;;5046704;28;20029;-77
2021/04/28 06:32:45;;;;;;;20.25;10.80;;;15.80;99.90;;;;;;5048497;28;20017;-74
2021/04/28 06:35:12;;;;;;;16.95;11.63;;;15.70;99.90;;;;;;5048261;28;20029;-76
2021/04/28 06:37:38;;;;;;;19.13;11.55;;;15.70;99.90;;;;;;5050715;28;20150;-76
2021/04/28 06:40:06;;;;;;;16.73;10.85;;;15.70;99.90;;;;;;5050853;28;20033;-75
2021/04/28 06:42:32;;;;;;;19.40;9.95;;;15.80;99.90;;;;;;5050555;28;20017;-76
2021/04/28 06:44:58;;;;;;;14.57;8.68;;;15.80;99.90;;;;;;5049218;28;20025;-78
2021/04/28 06:47:25;;;;;;;12.07;7.75;;;15.90;99.90;;;;;;5047720;28;20024;-74
2021/04/28 06:49:51;;;;;;;13.15;9.88;;;15.90;99.90;;;;;;5048695;28;20029;-77
2021/04/28 06:52:17;;;;;;;12.40;7.25;;;15.70;99.90;;;;;;5049455;28;20039;-75
2021/04/28 06:54:43;;;;;;;11.38;7.25;;;15.80;99.90;;;;;;5049012;28;20120;-77
2021/04/28 06:57:09;;;;;;;18.95;8.93;;;16.00;99.90;;;;;;5049639;28;20029;-76
2021/04/28 06:59:34;;;;;;;11.75;7.50;;;16.10;99.90;;;;;;5049109;28;20520;-76
2021/04/28 07:02:00;;;;;;;11.82;7.55;;;16.30;99.90;;;;;;5049453;28;20086;-78
2021/04/28 07:04:26;;;;;;;11.18;6.13;;;16.40;99.90;;;;;;5048844;28;20098;-78
2021/04/28 07:06:52;;;;;;;9.52;6.10;;;16.50;99.90;;;;;;5048331;28;20028;-77
2021/04/28 07:09:18;;;;;;;10.68;7.22;;;16.50;99.90;;;;;;5048461;28;20040;-77
2021/04/28 07:11:44;;;;;;;7.88;6.05;;;16.60;99.90;;;;;;5048949;28;20456;-76
2021/04/28 07:14:10;;;;;;;13.50;6.90;;;16.60;99.90;;;;;;5048567;28;20041;-75
2021/04/28 07:16:36;;;;;;;14.55;6.30;;;16.60;99.90;;;;;;5048852;28;20023;-74
2021/04/28 07:19:02;;;;;;;12.30;7.13;;;16.60;99.90;;;;;;5047595;28;20021;-77
2021/04/28 07:21:27;;;;;;;10.68;6.78;;;16.50;99.90;;;;;;5046565;28;20143;-74
2021/04/28 07:23:53;;;;;;;11.32;6.80;;;16.60;99.90;;;;;;5048570;28;20349;-77
2021/04/28 07:26:21;;;;;;;14.80;6.90;;;16.60;99.90;;;;;;5049333;28;20509;-75
2021/04/28 07:28:51;;;;;;;10.38;6.20;;;16.70;99.90;;;;;;5047733;28;20032;-76
2021/04/28 07:31:20;;;;;;;13.93;6.72;;;16.60;99.90;;;;;;5047316;28;20379;-76
2021/04/28 07:33:46;;;;;;;12.05;6.95;;;16.70;99.90;;;;;;5047272;28;20033;-76
2021/04/28 07:36:12;;;;;;;10.50;6.20;;;16.80;99.90;;;;;;5048461;28;20056;-74
2021/04/28 07:38:38;;;;;;;10.65;6.70;;;17.00;99.90;;;;;;5047222;28;20451;-75
2021/04/28 07:41:05;;;;;;;13.07;7.10;;;17.00;99.90;;;;;;5049390;28;20465;-76
2021/04/28 07:43:31;;;;;;;12.23;6.88;;;17.00;99.90;;;;;;5031762;28;20025;-76
2021/04/28 07:45:57;;;;;;;12.65;7.38;;;17.30;99.90;;;;;;5031016;28;20365;-76
2021/04/28 07:48:24;;;;;;;10.80;6.68;;;17.00;99.90;;;;;;5052801;28;20464;-75
2021/04/28 07:50:49;;;;;;;13.13;7.97;;;17.10;99.90;;;;;;5052039;28;20063;-75
2021/04/28 07:53:15;;;;;;;11.20;7.95;;;17.10;99.90;;;;;;5053006;28;20376;-76
2021/04/28 07:55:45;;;;;;;12.40;7.18;;;17.20;99.90;;;;;;5052088;28;20048;-74
2021/04/28 07:58:11;;;;;;;13.80;6.83;;;17.30;99.90;;;;;;5052656;28;20025;-74
2021/04/28 08:00:37;;;;;;;14.68;7.32;;;17.30;99.90;;;;;;5050698;28;20017;-75
2021/04/28 08:03:03;;;;;;;10.50;6.10;;;17.30;99.90;;;;;;5052956;28;20380;-75
2021/04/28 08:05:29;;;;;;;9.70;6.13;;;17.40;99.90;;;;;;5051932;28;20092;-76
2021/04/28 08:07:55;;;;;;;12.43;7.70;;;17.60;99.90;;;;;;5052566;28;20036;-76
2021/04/28 08:10:21;;;;;;;14.10;6.93;;;17.60;99.90;;;;;;5051759;28;20033;-76
2021/04/28 08:12:47;;;;;;;11.13;6.40;;;17.80;99.90;;;;;;5051563;28;20021;-76
2021/04/28 08:15:14;;;;;;;12.68;6.78;;;17.90;99.90;;;;;;5051357;28;20344;-75
2021/04/28 08:17:40;;;;;;;8.57;6.00;;;18.00;99.90;;;;;;5052531;28;20112;-75
2021/04/28 08:20:07;;;;;;;11.38;6.20;;;18.10;99.90;;;;;;5051641;28;20163;-74
2021/04/28 08:22:36;;;;;;;11.07;6.20;;;18.10;99.90;;;;;;5050016;28;20025;-76
2021/04/28 08:25:08;;;;;;;10.98;6.50;;;18.30;99.90;;;;;;5051835;28;20067;-75
2021/04/28 08:27:35;;;;;;;8.93;5.93;;;18.00;99.90;;;;;;5049154;28;20128;-76
2021/04/28 08:30:03;;;;;;;11.38;6.45;;;18.00;99.90;;;;;;5032362;28;20472;-76
2021/04/28 08:32:28;;;;;;;10.02;6.03;;;18.10;99.90;;;;;;5051550;28;20096;-77
2021/04/28 08:34:55;;;;;;;9.95;6.10;;;18.00;99.90;;;;;;5050929;28;20043;-76
2021/04/28 08:37:21;;;;;;;8.05;5.68;;;18.10;99.90;;;;;;5051894;28;20036;-78
2021/04/28 08:39:47;;;;;;;8.57;5.53;;;18.30;99.90;;;;;;5050915;28;20049;-76
2021/04/28 08:42:14;;;;;;;9.05;5.80;;;18.50;99.90;;;;;;5034311;28;20029;-75
2021/04/28 08:44:40;;;;;;;11.15;6.22;;;18.60;99.90;;;;;;5051210;28;20510;-74
2021/04/28 08:47:06;;;;;;;10.60;5.95;;;18.80;99.90;;;;;;5051862;28;20603;-76
2021/04/28 08:49:31;;;;;;;9.80;5.78;;;19.10;99.30;;;;;;5051067;28;20017;-74
2021/04/28 08:51:57;;;;;;;11.32;5.38;;;19.50;99.00;;;;;;5051815;28;20021;-75
2021/04/28 08:54:24;;;;;;;8.15;4.95;;;19.70;97.90;;;;;;5051368;28;20028;-77
2021/04/28 08:56:55;;;;;;;10.85;5.80;;;19.90;97.00;;;;;;5051315;28;20025;-76
2021/04/28 08:59:21;;;;;;;9.93;5.10;;;20.20;97.00;;;;;;5050579;28;20099;-74
2021/04/28 09:01:48;;;;;;;8.27;5.13;;;20.60;95.80;;;;;;5031081;28;20052;-76
2021/04/28 09:04:19;;;;;;;8.38;5.18;;;20.50;95.30;;;;;;5051679;28;20013;-76
2021/04/28 09:06:46;;;;;;;7.90;4.25;;;20.50;94.50;;;;;;5049456;28;20476;-77
2021/04/28 09:09:17;;;;;;;8.32;4.72;;;20.50;95.00;;;;;;5053160;28;20031;-76
2021/04/28 09:11:49;;;;;;;9.45;5.40;;;20.60;95.50;;;;;;5050215;28;20024;-77
2021/04/28 09:14:24;;;;;;;9.35;5.25;;;20.50;95.30;;;;;;5051412;28;20032;-76
2021/04/28 09:17:04;;;;;;;11.93;5.60;;;20.70;94.20;;;;;;5048057;28;20025;-76
2021/04/28 09:19:39;;;;;;;10.57;4.57;;;20.80;94.00;;;;;;5051996;28;20029;-77
2021/04/28 09:22:14;;;;;;;9.18;5.28;;;20.40;93.90;;;;;;5051806;28;20076;-78
2021/04/28 09:24:50;;;;;;;8.27;5.07;;;20.50;94.60;;;;;;5052025;28;20487;-74
2021/04/28 09:27:28;;;;;;;8.10;5.38;;;20.90;94.50;;;;;;5050264;28;20357;-75
2021/04/28 09:29:54;;;;;;;10.75;5.55;;;21.00;93.30;;;;;;5052301;28;20051;-76
2021/04/28 09:32:29;;;;;;;7.55;4.88;;;21.50;93.00;;;;;;5041888;28;20029;-74
2021/04/28 09:34:54;;;;;;;9.25;5.32;;;20.90;92.30;;;;;;5049390;28;20035;-77
2021/04/28 09:37:20;;;;;;;10.77;5.45;;;20.90;92.20;;;;;;5051187;28;20092;-76
2021/04/28 09:39:49;;;;;;;7.20;4.82;;;21.30;92.70;;;;;;5051828;28;20068;-77
2021/04/28 09:42:17;;;;;;;8.25;4.88;;;21.50;91.70;;;;;;5050015;28;20132;-76
2021/04/28 09:44:47;;;;;;;7.85;4.72;;;21.60;91.80;;;;;;5049664;28;20033;-77
2021/04/28 09:47:22;;;;;;;10.73;4.90;;;21.90;91.20;;;;;;5047737;28;20013;-76
2021/04/28 09:49:50;;;;;;;9.05;5.40;;;21.90;90.90;;;;;;5050474;28;20032;-76
2021/04/28 09:52:22;;;;;;;9.15;4.40;;;21.50;87.70;;;;;;5044246;28;20039;-75
2021/04/28 09:54:50;;;;;;;8.60;4.32;;;21.40;88.30;;;;;;5042370;28;20037;-74
2021/04/28 09:57:19;;;;;;;9.10;4.78;;;21.70;90.30;;;;;;5033167;28;20472;-75
2021/04/28 09:59:52;;;;;;;7.30;4.38;;;21.90;86.20;;;;;;5051690;28;20415;-74
2021/04/28 10:02:31;;;;;;;7.43;4.35;;;22.10;83.00;;;;;;5051337;28;20028;-75
2021/04/28 10:05:22;;;;;;;10.35;4.90;;;22.50;83.20;;;;;;5051883;28;20025;-75
2021/04/28 10:08:07;;;;;;;7.28;4.10;;;22.10;84.10;;;;;;5034850;28;20031;-75
2021/04/28 10:10:34;;;;;;;7.53;4.10;;;21.90;82.20;;;;;;5031164;28;20017;-75
2021/04/28 10:12:59;;;;;;;12.07;4.25;;;21.90;83.80;;;;;;5031120;28;20025;-75
2021/04/28 10:15:25;;;;;;;6.68;4.00;;;22.40;81.70;;;;;;5031749;28;20211;-75
2021/04/28 10:17:52;;;;;;;8.80;4.32;;;22.80;78.80;;;;;;5039637;28;20175;-76
2021/04/28 10:20:19;;;;;;;7.72;4.70;;;22.60;78.10;;;;;;5042297;28;21513;-76
2021/04/28 10:22:45;;;;;;;11.40;6.20;;;22.60;77.20;;;;;;5050427;28;20088;-79
2021/04/28 10:25:14;;;;;;;9.82;4.80;;;22.80;76.50;;;;;;5049772;28;20033;-75
2021/04/28 10:27:40;;;;;;;9.23;5.40;;;23.50;77.60;;;;;;5049585;28;20061;-77
2021/04/28 10:30:08;;;;;;;6.43;4.30;;;23.90;76.30;;;;;;5049071;28;20423;-75
2021/04/28 10:32:36;;;;;;;10.23;4.32;;;24.00;72.20;;;;;;5047414;28;20452;-75
2021/04/28 10:35:25;;;;;;;7.18;3.90;;;23.10;74.40;;;;;;5031594;28;20033;-75
2021/04/28 10:37:52;;;;;;;8.77;4.30;;;23.40;72.60;;;;;;5045105;28;20060;-75
2021/04/28 10:40:23;;;;;;;9.93;4.25;;;23.40;71.10;;;;;;5053154;28;20032;-76
2021/04/28 10:42:50;;;;;;;11.07;3.55;;;23.30;72.00;;;;;;5049778;28;20161;-75
2021/04/28 10:45:19;;;;;;;11.05;3.95;;;23.20;71.40;;;;;;5036546;28;20035;-77
2021/04/28 10:47:47;;;;;;;9.00;3.90;;;23.10;71.80;;;;;;5050448;28;20021;-76
2021/04/28 10:50:20;;;;;;;8.32;4.45;;;23.20;70.30;;;;;;5029465;28;20528;-75
2021/04/28 10:52:49;;;;;;;7.80;3.83;;;23.00;71.30;;;;;;5048570;28;20047;-76
2021/04/28 10:55:41;;;;;;;6.97;3.40;;;23.30;69.70;;;;;;5032484;28;20040;-75
2021/04/28 10:58:26;;;;;;;6.97;3.90;;;23.20;69.70;;;;;;5049118;28;20033;-76
2021/04/28 11:03:41;;;;;;;6.50;3.70;;;23.60;68.80;;;;;;5049161;28;20468;-76
2021/04/28 11:06:28;;;;;;;8.45;4.57;;;23.60;67.10;;;;;;5049509;28;20028;-78
2021/04/28 11:08:57;;;;;;;6.93;3.50;;;23.70;66.60;;;;;;5047232;28;20096;-77
2021/04/28 11:11:35;;;;;;;8.52;3.80;;;23.80;66.40;;;;;;5049487;28;20029;-77
2021/04/28 11:14:18;;;;;;;9.48;2.95;;;24.10;65.50;;;;;;5047320;28;20112;-76
2021/04/28 11:17:01;;;;;;;6.32;3.25;;;24.00;64.10;;;;;;5046765;28;20408;-76
2021/04/28 11:19:34;;;;;;;10.90;3.28;;;23.60;66.40;;;;;;5031935;28;20516;-75
2021/04/28 11:22:16;;;;;;;7.32;3.25;;;23.80;64.20;;;;;;5050508;28;20025;-77
2021/04/28 11:24:58;;;;;;;7.22;3.40;;;24.40;63.80;;;;;;5035435;28;20009;-76
2021/04/28 11:27:55;;;;;;;6.63;3.05;;;24.90;63.30;;;;;;5050133;28;20021;-76
2021/04/28 11:30:41;;;;;;;7.15;3.40;;;25.00;62.50;;;;;;5053165;28;20383;-76
2021/04/28 11:33:23;;;;;;;8.10;3.75;;;24.20;62.40;;;;;;5032678;28;20389;-76
2021/04/28 11:35:52;;;;;;;5.28;3.13;;;24.70;64.10;;;;;;5051213;28;20025;-76
2021/04/28 11:38:29;;;;;;;8.15;3.47;;;24.70;62.00;;;;;;5052329;28;20433;-77
2021/04/28 11:41:03;;;;;;;7.28;3.85;;;24.40;61.20;;;;;;5053051;28;20029;-76
2021/04/28 11:43:41;;;;;;;7.90;4.30;;;24.60;61.90;;;;;;5052489;28;20079;-77
2021/04/28 11:46:19;;;;;;;6.30;3.40;;;24.80;61.80;;;;;;5042607;28;20032;-77
2021/04/28 11:48:47;;;;;;;6.25;3.67;;;25.00;62.10;;;;;;5059019;28;20090;-77
2021/04/28 11:51:16;;;;;;;7.05;3.53;;;25.90;61.90;;;;;;5051231;28;20026;-76
2021/04/28 11:54:18;;;;;;;8.07;3.47;;;25.90;59.60;;;;;;5041481;28;20553;-78
2021/04/28 11:56:47;;;;;;;7.05;3.38;;;25.30;58.90;;;;;;5044221;28;20025;-76
2021/04/28 11:59:25;;;;;;;9.02;3.40;;;25.30;59.20;;;;;;5050884;28;20056;-77
2021/04/28 12:02:11;;;;;;;5.93;3.15;;;25.10;59.70;;;;;;5056295;28;20028;-76
2021/04/28 12:04:38;;;;;;;6.30;3.13;;;25.00;59.30;;;;;;5051151;28;20036;-75
2021/04/28 12:07:05;;;;;;;8.13;3.00;;;25.10;58.90;;;;;;5055495;28;20104;-79
2021/04/28 12:09:48;;;;;;;8.55;3.45;;;25.20;58.50;;;;;;5057627;28;20460;-76
2021/04/28 12:12:21;;;;;;;8.68;2.67;;;24.90;59.10;;;;;;5054111;28;20033;-77
2021/04/28 12:14:48;;;;;;;10.77;3.42;;;25.00;60.30;;;;;;5053193;28;20072;-76
2021/04/28 12:17:17;;;;;;;6.72;3.22;;;25.20;57.90;;;;;;5053816;28;20482;-77
2021/04/28 12:19:45;;;;;;;8.43;3.22;;;25.20;58.20;;;;;;5049690;28;20025;-76
2021/04/28 12:22:11;;;;;;;7.93;3.13;;;25.00;58.60;;;;;;5052081;28;20480;-75
2021/04/28 12:24:44;;;;;;;6.32;3.22;;;24.50;58.10;;;;;;5052752;28;20510;-75
2021/04/28 12:27:30;;;;;;;7.05;3.35;;;24.40;58.70;;;;;;5053863;28;20132;-74
2021/04/28 12:29:58;;;;;;;7.50;3.28;;;24.20;60.10;;;;;;5052358;28;20082;-75
2021/04/28 12:32:30;;;;;;;7.80;3.35;;;24.40;60.30;;;;;;5053232;28;20577;-76
2021/04/28 12:35:19;;;;;;;7.60;3.22;;;24.30;60.00;;;;;;5052296;28;20029;-78
2021/04/28 12:37:58;;;;;;;9.38;3.03;;;23.80;61.50;;;;;;5052652;28;20037;-77
2021/04/28 12:40:52;;;;;;;7.32;3.05;;;23.70;62.00;;;;;;5050210;28;20029;-76
2021/04/28 12:43:35;;;;;;;8.20;3.00;;;23.60;62.70;;;;;;5048432;28;20653;-76
2021/04/28 12:46:11;;;;;;;10.40;3.38;;;23.30;63.50;;;;;;5031994;28;20438;-77